CDT,Max TemperatureF,Mean TemperatureF,Min TemperatureF,Max Dew PointF,MeanDew PointF,Min DewpointF,Max Humidity, Mean Humidity, Min Humidity, Max Sea Level PressureIn, Mean Sea Level PressureIn, Min Sea Level PressureIn, Max VisibilityMiles, Mean VisibilityMiles, Min VisibilityMiles, Max Wind SpeedMPH, Mean Wind SpeedMPH, Max Gust SpeedMPH,PrecipitationIn, CloudCover, Events, WindDirDegrees
2014-3-1,19,10,0,13,-2,-8,79,74,69,30.49,30.35,30.12,10,6,1,26,18,32,0.00,8,Snow,357
2014-3-2,0,-4,-8,-9,-15,-19,70,61,54,30.59,30.54,30.49,10,10,7,22,15,28,0.00,2,,344
2014-3-3,17,4,-10,4,-6,-18,71,62,49,30.54,30.41,30.20,10,10,10,16,7,,0.00,2,,201
2014-3-4,27,16,6,15,7,-1,75,65,51,30.19,30.10,30.03,10,10,10,14,8,,0.00,2,,120
2014-3-5,25,22,20,18,16,13,83,75,69,30.34,30.27,30.15,10,10,10,16,10,21,0.00,7,,87
2014-3-6,36,28,21,29,23,17,87,81,72,30.31,30.10,29.87,10,7,5,17,11,,0.00,4,,153
2014-3-7,38,31,24,32,27,19,87,82,77,30.15,29.93,29.77,10,6,1,25,13,30,0.00,5,Snow,305
2014-3-8,29,25,21,22,19,16,93,79,69,30.33,30.27,30.15,10,10,5,20,12,25,0.00,4,Snow,346
2014-3-9,52,36,20,39,29,19,93,73,54,30.26,29.97,29.77,10,10,10,18,10,24,0.00,0,,200
2014-3-10,64,50,35,48,38,31,87,67,44,29.77,29.72,29.67,10,10,10,14,8,,0.00,0,,238
2014-3-11,42,38,35,36,33,26,83,76,64,29.98,29.74,29.58,10,10,10,33,12,39,0.00,3,,43
2014-3-12,35,32,28,28,24,20,86,72,61,30.15,30.09,29.99,10,10,10,22,15,30,0.00,5,,347
2014-3-13,61,45,29,38,31,25,89,66,35,30.08,29.90,29.66,10,10,10,18,9,24,0.00,1,,202
2014-3-14,53,44,36,34,31,26,82,60,41,29.97,29.79,29.60,10,10,10,23,15,33,0.00,1,,294
2014-3-15,45,37,29,32,28,21,92,75,48,30.25,30.04,29.96,10,9,1,23,8,30,0.00,4,Snow,68
2014-3-16,32,26,21,24,17,12,82,66,48,30.38,30.27,30.09,10,10,4,17,12,21,0.00,3,Snow,50
2014-3-17,46,35,24,30,23,17,76,66,50,30.09,29.74,29.53,10,10,10,24,14,29,0.00,1,,168
2014-3-18,48,41,34,37,31,26,89,70,56,29.68,29.55,29.50,10,10,5,17,11,26,0.00,3,Rain,110
2014-3-19,44,38,31,32,28,26,92,76,56,30.04,29.93,29.68,10,8,3,25,17,34,0.00,6,Snow,307
2014-3-20,54,41,28,33,29,26,92,67,37,30.04,29.97,29.88,10,10,10,14,7,22,0.00,1,,99
2014-3-21,56,43,30,36,30,24,87,68,40,30.17,29.89,29.77,10,10,7,30,13,37,0.00,1,,335
2014-3-22,30,24,19,24,13,10,79,60,46,30.50,30.36,30.18,10,10,10,23,18,32,0.00,1,,347
2014-3-23,32,24,15,18,11,6,82,58,34,30.53,30.46,30.34,10,10,10,13,8,,0.00,2,,7
2014-3-24,40,33,26,28,20,15,87,63,37,30.36,30.25,30.15,10,10,2,16,10,24,0.00,6,Snow,180
2014-3-25,32,26,20,20,12,5,81,55,31,30.36,30.25,30.19,10,10,7,23,11,30,0.00,3,Snow,312
2014-3-26,56,38,19,36,21,13,82,53,27,30.19,29.91,29.66,10,10,10,33,14,41,0.00,3,,169
2014-3-27,52,43,34,50,40,32,95,91,74,29.73,29.47,29.25,10,5,2,25,17,36,0.19,8,Rain,179
2014-3-28,36,34,32,32,29,28,90,81,76,30.22,30.03,29.74,10,10,7,20,11,28,0.00,8,,354
2014-3-29,51,40,29,34,29,24,90,70,44,30.31,30.22,30.13,10,10,10,12,7,,0.00,1,,348
2014-3-30,69,51,33,37,33,29,83,53,24,30.11,29.91,29.74,10,10,7,30,13,36,0.00,0,,166
2014-3-31,73,50,27,47,35,15,77,55,24,29.81,29.60,29.38,10,10,7,40,21,52,0.08,3,Rain,189